Time;durP1;ratioP1;P1;durP2;ratioP2;P2;SDS_P1;SDS_P2;PMS_P1;PMS_P2;Temp;Humidity;BMP_temperature;BMP_pressure;BME280_temperature;BME280_humidity;BME280_pressure;Samples;Min_cycle;Max_cycle;Signal;HPM_P1;HPM_P2
2023/05/13 00:01:18;;;;;;;16.48;9.57;;;12.00;99.90;;;;;;4956591;28;20047;-63
2023/05/13 00:03:44;;;;;;;15.77;9.68;;;12.00;99.90;;;;;;4950187;28;20061;-63
2023/05/13 00:06:09;;;;;;;15.80;9.30;;;12.00;99.90;;;;;;4954085;28;20050;-63
2023/05/13 00:08:35;;;;;;;14.30;9.13;;;12.00;99.90;;;;;;4951850;28;20057;-63
2023/05/13 00:11:01;;;;;;;13.15;8.48;;;12.00;99.90;;;;;;4965208;28;20054;-63
2023/05/13 00:13:27;;;;;;;12.85;8.95;;;12.00;99.90;;;;;;4933831;28;20042;-63
2023/05/13 00:15:53;;;;;;;13.25;8.50;;;11.90;99.90;;;;;;4956604;28;20415;-63
2023/05/13 00:18:18;;;;;;;11.68;8.27;;;11.90;99.90;;;;;;4954026;28;20490;-63
2023/05/13 00:20:44;;;;;;;15.77;8.60;;;11.90;99.90;;;;;;4954395;28;20074;-63
2023/05/13 00:23:10;;;;;;;12.27;8.15;;;11.90;99.90;;;;;;4951364;28;20046;-63
2023/05/13 00:25:36;;;;;;;15.38;8.63;;;11.90;99.90;;;;;;4942187;28;20133;-63
2023/05/13 00:28:03;;;;;;;14.35;8.50;;;11.80;99.90;;;;;;4956473;28;20050;-63
2023/05/13 00:30:29;;;;;;;12.20;8.68;;;11.80;99.90;;;;;;4956116;28;20073;-63
2023/05/13 00:32:55;;;;;;;16.85;9.05;;;11.80;99.90;;;;;;4970835;28;20133;-63
2023/05/13 00:35:21;;;;;;;12.68;8.70;;;11.80;99.90;;;;;;4973546;28;20042;-63
2023/05/13 00:37:47;;;;;;;11.65;8.80;;;11.80;99.90;;;;;;4964593;28;20090;-63
2023/05/13 00:40:20;;;;;;;17.45;9.45;;;11.70;99.90;;;;;;4960746;28;20508;-63
2023/05/13 00:42:45;;;;;;;;;;;11.70;99.90;;;;;;4953286;28;20046;-63
2023/05/13 00:45:11;;;;;;;13.30;9.32;;;11.70;99.90;;;;;;4970801;28;19921;-63
2023/05/13 00:47:39;;;;;;;16.98;9.15;;;11.70;99.90;;;;;;4952665;28;20108;-63
2023/05/13 00:50:05;;;;;;;15.52;9.57;;;11.60;99.90;;;;;;4953413;28;20050;-63
2023/05/13 00:52:31;;;;;;;19.88;9.48;;;11.60;99.90;;;;;;4951005;28;20497;-63
2023/05/13 00:54:57;;;;;;;14.68;9.80;;;11.60;99.90;;;;;;4968433;28;20050;-63
2023/05/13 00:57:23;;;;;;;13.73;9.80;;;11.60;99.90;;;;;;4941939;28;20039;-63
2023/05/13 00:59:50;;;;;;;16.38;9.98;;;11.60;99.90;;;;;;4952389;28;20505;-63
2023/05/13 01:02:37;;;;;;;12.68;10.02;;;11.60;99.90;;;;;;4944521;28;20058;-63
2023/05/13 01:05:11;;;;;;;17.10;9.20;;;11.50;99.90;;;;;;4932600;28;20410;-63
2023/05/13 01:08:16;;;;;;;12.20;9.98;;;11.50;99.90;;;;;;4954911;28;20077;-63
2023/05/13 01:10:50;;;;;;;17.08;11.15;;;11.50;99.90;;;;;;4950800;28;20042;-63
2023/05/13 01:13:22;;;;;;;18.27;10.95;;;11.50;99.90;;;;;;4946892;28;20154;-63
2023/05/13 01:16:02;;;;;;;17.67;10.82;;;11.50;99.90;;;;;;4947215;28;20035;-63
2023/05/13 01:18:35;;;;;;;15.38;10.73;;;11.40;99.90;;;;;;4938831;28;20473;-63
2023/05/13 01:21:04;;;;;;;12.02;10.27;;;11.40;99.90;;;;;;4952660;28;20054;-63
2023/05/13 01:23:29;;;;;;;15.65;10.63;;;11.40;99.90;;;;;;4950596;28;20134;-63
2023/05/13 01:25:55;;;;;;;19.05;11.38;;;11.40;99.90;;;;;;4951705;28;20051;-63
2023/05/13 01:28:21;;;;;;;15.48;11.25;;;11.40;99.90;;;;;;4955395;28;20532;-63
2023/05/13 01:30:48;;;;;;;15.68;11.23;;;11.30;99.90;;;;;;4940812;28;20134;-63
2023/05/13 01:33:15;;;;;;;15.80;11.45;;;11.30;99.90;;;;;;4953766;28;20121;-63
2023/05/13 01:35:42;;;;;;;16.08;11.23;;;11.30;99.90;;;;;;4956178;28;20054;-63
2023/05/13 01:38:08;;;;;;;14.13;11.90;;;11.30;99.90;;;;;;4953171;28;20180;-63
2023/05/13 01:40:34;;;;;;;17.90;12.10;;;11.30;99.90;;;;;;4953761;28;20047;-63
2023/05/13 01:43:00;;;;;;;17.70;11.90;;;11.20;99.90;;;;;;4952248;28;20520;-63
2023/05/13 01:45:29;;;;;;;15.35;11.88;;;11.20;99.90;;;;;;4941728;28;20181;-63
2023/05/13 01:47:55;;;;;;;18.45;12.07;;;11.20;99.90;;;;;;4951292;28;20051;-63
2023/05/13 01:50:21;;;;;;;13.75;12.32;;;11.20;99.90;;;;;;4947522;28;20045;-63
2023/05/13 01:52:47;;;;;;;17.85;11.82;;;11.20;99.90;;;;;;4954811;28;22405;-63
2023/05/13 01:55:13;;;;;;;18.70;12.32;;;11.20;99.90;;;;;;4946593;28;20085;-63
2023/05/13 01:57:38;;;;;;;17.30;12.20;;;11.20;99.90;;;;;;4951374;28;20039;-63
2023/05/13 02:00:05;;;;;;;18.27;12.63;;;11.20;99.90;;;;;;4962317;28;20058;-63
2023/05/13 02:02:31;;;;;;;16.38;12.65;;;11.20;99.90;;;;;;4924902;28;20105;-63
2023/05/13 02:04:57;;;;;;;16.67;12.60;;;11.20;99.90;;;;;;4947065;28;20050;-63
2023/05/13 02:07:22;;;;;;;18.08;12.77;;;11.10;99.90;;;;;;4967808;28;20070;-63
2023/05/13 02:09:48;;;;;;;15.32;13.07;;;11.20;99.90;;;;;;4953198;28;20043;-63
2023/05/13 02:12:14;;;;;;;19.98;13.23;;;11.10;99.90;;;;;;4948708;28;20499;-63
2023/05/13 02:14:39;;;;;;;18.83;13.75;;;11.20;99.90;;;;;;4951286;28;20071;-63
2023/05/13 02:17:05;;;;;;;20.67;13.43;;;11.20;99.90;;;;;;4955391;28;20043;-63
2023/05/13 02:19:31;;;;;;;19.00;13.48;;;11.10;99.90;;;;;;4970333;28;20056;-63
2023/05/13 02:21:57;;;;;;;16.90;13.43;;;11.10;99.90;;;;;;4935042;28;20078;-63
2023/05/13 02:24:22;;;;;;;17.63;12.68;;;11.20;99.90;;;;;;4950418;28;20038;-63
2023/05/13 02:26:48;;;;;;;21.48;12.60;;;11.20;99.90;;;;;;4956776;28;20074;-63
2023/05/13 02:29:14;;;;;;;21.00;12.40;;;11.10;99.90;;;;;;4954980;28;20078;-63
2023/05/13 02:31:41;;;;;;;16.65;12.07;;;11.10;99.90;;;;;;4968719;28;20057;-63
2023/05/13 02:34:07;;;;;;;20.55;13.15;;;11.10;99.90;;;;;;4971552;28;20043;-63
2023/05/13 02:36:33;;;;;;;20.23;13.23;;;11.10;99.90;;;;;;4972317;28;20050;-63
2023/05/13 02:38:59;;;;;;;18.20;12.75;;;11.10;99.90;;;;;;4937742;28;20042;-63
2023/05/13 02:41:25;;;;;;;17.73;12.30;;;11.10;99.90;;;;;;4952363;28;20665;-63
2023/05/13 02:43:51;;;;;;;16.67;13.02;;;11.00;99.90;;;;;;4954386;28;20073;-63
2023/05/13 02:46:16;;;;;;;14.98;12.27;;;11.00;99.90;;;;;;4933641;28;20066;-63
2023/05/13 02:48:42;;;;;;;16.83;13.23;;;11.00;99.90;;;;;;4970571;28;20038;-63
2023/05/13 02:51:08;;;;;;;24.20;12.52;;;10.90;99.90;;;;;;4939817;28;20050;-63
2023/05/13 02:53:34;;;;;;;18.60;13.45;;;10.90;99.90;;;;;;4962461;28;20046;-63
2023/05/13 02:55:59;;;;;;;21.30;12.77;;;10.90;99.90;;;;;;4951271;28;20453;-63
2023/05/13 02:58:25;;;;;;;19.05;12.85;;;10.90;99.90;;;;;;4951331;28;20200;-63
2023/05/13 03:00:51;;;;;;;16.40;13.43;;;10.90;99.90;;;;;;4930266;28;20554;-63
2023/05/13 03:03:17;;;;;;;20.45;14.15;;;10.90;99.90;;;;;;4934046;28;20486;-63
2023/05/13 03:05:42;;;;;;;22.85;13.35;;;10.90;99.90;;;;;;4931846;28;20046;-63
2023/05/13 03:08:08;;;;;;;17.95;13.20;;;10.80;99.90;;;;;;4933568;28;20497;-63
2023/05/13 03:10:34;;;;;;;23.52;14.43;;;10.80;99.90;;;;;;4944883;28;20049;-63
2023/05/13 03:13:00;;;;;;;17.30;13.95;;;10.80;99.90;;;;;;4948128;28;20126;-63
2023/05/13 03:15:25;;;;;;;22.48;13.30;;;10.90;99.90;;;;;;4950778;28;20043;-63
2023/05/13 03:17:51;;;;;;;19.13;13.30;;;10.80;99.90;;;;;;4936642;28;20366;-63
2023/05/13 03:20:17;;;;;;;23.63;13.70;;;10.80;99.90;;;;;;4929427;28;20066;-63
2023/05/13 03:22:43;;;;;;;22.40;13.60;;;10.80;99.90;;;;;;4954729;28;20062;-63
2023/05/13 03:25:09;;;;;;;18.67;14.50;;;10.80;99.90;;;;;;4924072;28;20169;-63
2023/05/13 03:27:35;;;;;;;17.27;13.65;;;10.90;99.90;;;;;;4939007;28;20050;-63
2023/05/13 03:30:01;;;;;;;22.00;13.80;;;10.80;99.90;;;;;;4947444;28;20043;-63
2023/05/13 03:32:29;;;;;;;22.52;14.32;;;10.80;99.90;;;;;;4949047;28;20482;-63
2023/05/13 03:34:56;;;;;;;20.48;13.63;;;10.80;99.90;;;;;;4943570;28;20062;-63
2023/05/13 03:37:23;;;;;;;21.65;14.63;;;10.80;99.90;;;;;;4933123;28;20044;-63
2023/05/13 03:39:49;;;;;;;22.05;14.43;;;10.80;99.90;;;;;;4932405;28;20498;-63
2023/05/13 03:42:15;;;;;;;22.52;14.10;;;10.80;99.90;;;;;;4917674;28;20110;-63
2023/05/13 03:44:41;;;;;;;20.05;13.38;;;10.90;99.90;;;;;;4936866;28;20450;-63
2023/05/13 03:47:07;;;;;;;23.23;14.05;;;10.80;99.90;;;;;;4936455;28;20039;-63
2023/05/13 03:49:32;;;;;;;21.80;12.98;;;10.80;99.90;;;;;;4937683;28;20514;-63
2023/05/13 03:51:58;;;;;;;25.23;13.88;;;10.80;99.90;;;;;;4935390;28;20043;-63
2023/05/13 03:54:24;;;;;;;20.13;12.48;;;10.80;99.90;;;;;;4921618;28;20054;-63
2023/05/13 03:56:50;;;;;;;18.05;12.35;;;10.90;99.90;;;;;;4944108;28;20042;-63
2023/05/13 03:59:15;;;;;;;21.50;12.60;;;10.80;99.90;;;;;;4959899;28;20095;-63
2023/05/13 04:01:41;;;;;;;23.52;13.32;;;10.80;99.90;;;;;;4946497;28;20407;-63
2023/05/13 04:04:07;;;;;;;17.17;12.55;;;10.80;99.90;;;;;;4941299;28;20042;-63
2023/05/13 04:06:32;;;;;;;23.88;13.32;;;10.80;99.90;;;;;;4972927;28;20046;-63
2023/05/13 04:08:58;;;;;;;22.98;12.73;;;10.90;99.90;;;;;;4954565;28;20050;-63
2023/05/13 04:11:24;;;;;;;21.05;11.93;;;10.90;99.90;;;;;;4954916;28;22314;-63
2023/05/13 04:13:50;;;;;;;18.45;13.30;;;10.90;99.90;;;;;;4956029;28;20038;-63
2023/05/13 04:16:16;;;;;;;18.05;12.68;;;10.90;99.90;;;;;;4951164;28;20077;-63
2023/05/13 04:18:42;;;;;;;17.90;12.73;;;10.90;99.90;;;;;;4952943;28;20050;-62
2023/05/13 04:21:08;;;;;;;17.17;12.52;;;10.90;99.90;;;;;;4957293;28;20050;-63
2023/05/13 04:23:34;;;;;;;21.17;12.38;;;10.90;99.90;;;;;;4958932;28;20124;-63
2023/05/13 04:26:00;;;;;;;24.00;12.02;;;10.90;99.90;;;;;;4941812;28;20124;-63
2023/05/13 04:28:26;;;;;;;22.23;12.32;;;10.90;99.90;;;;;;4956113;28;21809;-63
2023/05/13 04:30:52;;;;;;;19.38;12.60;;;10.90;99.90;;;;;;4952068;28;20046;-63
2023/05/13 04:33:17;;;;;;;20.83;12.15;;;11.00;99.90;;;;;;4929121;28;20973;-63
2023/05/13 04:35:43;;;;;;;21.58;12.10;;;11.00;99.90;;;;;;4971223;28;20093;-63
2023/05/13 04:38:09;;;;;;;17.80;12.07;;;11.00;99.90;;;;;;4959267;28;20039;-63
2023/05/13 04:40:35;;;;;;;19.90;12.85;;;11.00;99.90;;;;;;4953175;28;20052;-63
2023/05/13 04:43:00;;;;;;;17.90;11.77;;;11.10;99.90;;;;;;4945933;28;20560;-63
2023/05/13 04:45:26;;;;;;;18.83;12.20;;;11.10;99.90;;;;;;4951066;28;20437;-63
2023/05/13 04:47:52;;;;;;;20.95;12.15;;;11.10;99.90;;;;;;4968871;28;20034;-63
2023/05/13 04:50:17;;;;;;;15.73;12.00;;;11.10;99.90;;;;;;4951251;28;20050;-63
2023/05/13 04:52:44;;;;;;;18.13;12.07;;;11.10;99.90;;;;;;4945115;28;20053;-63
2023/05/13 04:55:10;;;;;;;17.42;12.13;;;11.20;99.90;;;;;;4949895;28;20046;-63
2023/05/13 04:57:35;;;;;;;18.58;12.20;;;11.20;99.90;;;;;;4950508;28;20208;-63
2023/05/13 05:00:03;;;;;;;17.05;11.93;;;11.30;99.90;;;;;;4942987;28;20067;-63
2023/05/13 05:02:28;;;;;;;19.17;11.30;;;11.30;99.90;;;;;;4956558;28;20053;-63
2023/05/13 05:04:57;;;;;;;15.07;11.88;;;11.30;99.90;;;;;;4948768;28;20183;-63
2023/05/13 05:07:24;;;;;;;19.52;11.77;;;11.30;99.90;;;;;;4952032;28;20117;-63
2023/05/13 05:09:50;;;;;;;20.08;12.57;;;11.40;99.90;;;;;;4956220;28;20053;-63
2023/05/13 05:12:15;;;;;;;20.00;12.40;;;11.40;99.90;;;;;;4955464;28;20043;-63
2023/05/13 05:14:41;;;;;;;17.65;12.82;;;11.40;99.90;;;;;;4949190;28;20105;-63
2023/05/13 05:17:07;;;;;;;14.80;11.65;;;11.40;99.90;;;;;;4950787;28;20113;-63
2023/05/13 05:19:33;;;;;;;18.35;12.05;;;11.50;99.90;;;;;;4953372;28;20039;-62
2023/05/13 05:21:58;;;;;;;20.98;11.88;;;11.60;99.90;;;;;;4957728;28;20477;-62
2023/05/13 05:24:25;;;;;;;20.63;12.18;;;11.60;99.90;;;;;;4956053;28;20047;-63
2023/05/13 05:26:51;;;;;;;21.17;12.13;;;11.70;99.90;;;;;;4954762;28;20043;-63
2023/05/13 05:29:16;;;;;;;18.20;12.20;;;11.70;99.90;;;;;;4956278;28;20086;-63
2023/05/13 05:31:43;;;;;;;16.88;11.82;;;11.80;99.90;;;;;;4956560;28;20043;-63
2023/05/13 05:34:08;;;;;;;22.52;11.80;;;11.80;99.90;;;;;;4956881;28;20047;-63
2023/05/13 05:36:34;;;;;;;20.10;12.35;;;11.90;99.90;;;;;;4954788;28;20600;-63
2023/05/13 05:39:00;;;;;;;19.35;12.40;;;11.90;99.90;;;;;;4961228;28;20057;-62
2023/05/13 05:41:25;;;;;;;16.63;11.15;;;12.00;99.90;;;;;;4955676;28;20055;-63
2023/05/13 05:43:52;;;;;;;18.10;12.15;;;12.10;99.90;;;;;;4956957;28;20089;-63
2023/05/13 05:46:17;;;;;;;24.52;11.90;;;12.10;99.90;;;;;;4953090;28;20049;-63
2023/05/13 05:48:43;;;;;;;22.85;12.13;;;12.20;99.90;;;;;;4954767;28;20568;-63
2023/05/13 05:51:09;;;;;;;18.10;11.85;;;12.20;99.90;;;;;;4953969;28;20509;-63
2023/05/13 05:53:39;;;;;;;19.83;11.85;;;12.30;99.90;;;;;;4953357;28;20090;-63
2023/05/13 05:56:05;;;;;;;19.15;11.25;;;12.40;99.90;;;;;;4955709;28;20402;-62
2023/05/13 05:58:31;;;;;;;18.83;11.73;;;12.40;99.90;;;;;;4956589;28;20467;-63
2023/05/13 06:00:59;;;;;;;21.77;11.70;;;12.50;99.90;;;;;;4946648;28;20164;-63
2023/05/13 06:03:25;;;;;;;15.38;11.38;;;12.40;99.90;;;;;;4955896;28;20046;-63
2023/05/13 06:05:51;;;;;;;17.08;11.38;;;12.60;99.90;;;;;;4938073;28;20054;-63
2023/05/13 06:08:17;;;;;;;18.40;12.23;;;12.70;99.90;;;;;;4954881;28;20169;-63
2023/05/13 06:10:43;;;;;;;24.98;11.48;;;12.80;99.90;;;;;;4952860;28;20961;-63
2023/05/13 06:13:09;;;;;;;16.70;11.35;;;12.90;99.90;;;;;;4973925;28;20034;-63
2023/05/13 06:15:38;;;;;;;14.95;10.95;;;12.90;99.90;;;;;;4965011;28;20034;-62
2023/05/13 06:18:04;;;;;;;15.85;10.90;;;13.00;99.90;;;;;;4944608;28;20049;-62
2023/05/13 06:20:33;;;;;;;15.05;11.35;;;13.10;99.90;;;;;;4954397;28;20042;-63
2023/05/13 06:22:59;;;;;;;19.20;11.32;;;13.20;99.90;;;;;;4974202;28;20042;-63
2023/05/13 06:25:25;;;;;;;15.77;10.68;;;13.20;99.90;;;;;;4960313;28;20058;-63
2023/05/13 06:27:50;;;;;;;17.75;10.35;;;13.30;99.90;;;;;;4951738;28;20042;-63
2023/05/13 06:30:16;;;;;;;18.63;11.45;;;13.40;99.90;;;;;;4953854;28;20078;-63
2023/05/13 06:32:42;;;;;;;19.83;10.15;;;13.50;99.90;;;;;;4969672;28;20047;-63
2023/05/13 06:35:08;;;;;;;15.57;10.77;;;13.60;99.90;;;;;;4952886;28;20089;-63
2023/05/13 06:37:33;;;;;;;15.50;10.38;;;13.70;99.90;;;;;;4953353;28;20042;-63
2023/05/13 06:39:59;;;;;;;17.90;10.88;;;13.70;99.90;;;;;;4971087;28;20066;-63
2023/05/13 06:42:25;;;;;;;13.40;10.38;;;13.80;99.90;;;;;;4954997;28;20129;-63
2023/05/13 06:44:51;;;;;;;16.65;10.43;;;13.90;99.90;;;;;;4950755;28;20046;-63
2023/05/13 06:47:17;;;;;;;20.70;10.48;;;14.00;99.90;;;;;;4939385;28;20054;-63
2023/05/13 06:49:43;;;;;;;17.33;10.25;;;14.10;99.90;;;;;;4951995;28;20085;-63
2023/05/13 06:52:09;;;;;;;19.70;9.63;;;14.10;99.90;;;;;;4955828;28;20042;-63
2023/05/13 06:54:35;;;;;;;19.88;10.70;;;14.20;99.90;;;;;;4971906;28;20121;-63
2023/05/13 06:57:00;;;;;;;14.57;9.88;;;14.30;99.90;;;;;;4957141;28;20607;-63
2023/05/13 06:59:26;;;;;;;15.93;9.82;;;14.40;99.90;;;;;;4940070;28;20050;-63
2023/05/13 07:01:52;;;;;;;15.68;9.98;;;14.50;99.90;;;;;;4965827;28;20055;-63
2023/05/13 07:04:18;;;;;;;15.02;9.65;;;14.60;99.90;;;;;;4949639;28;20042;-63
2023/05/13 07:06:43;;;;;;;17.10;9.48;;;14.70;99.90;;;;;;4939097;28;20047;-63
2023/05/13 07:09:09;;;;;;;13.95;9.73;;;14.80;99.90;;;;;;4949751;28;20100;-63
2023/05/13 07:11:35;;;;;;;12.65;9.57;;;14.90;99.90;;;;;;4957108;28;20038;-63
2023/05/13 07:14:01;;;;;;;16.95;9.45;;;15.00;99.90;;;;;;4956921;28;20049;-63
2023/05/13 07:16:27;;;;;;;14.65;9.18;;;15.10;99.90;;;;;;4945682;28;20404;-63
2023/05/13 07:18:53;;;;;;;15.32;8.85;;;15.20;99.90;;;;;;4960656;28;20038;-63
2023/05/13 07:21:19;;;;;;;13.32;8.30;;;15.30;99.90;;;;;;4957591;28;20061;-63
2023/05/13 07:23:45;;;;;;;17.65;8.73;;;15.40;99.90;;;;;;4976390;28;20077;-63
2023/05/13 07:26:11;;;;;;;19.70;9.10;;;15.50;99.90;;;;;;4948264;28;20112;-63
2023/05/13 07:28:36;;;;;;;15.90;8.80;;;15.60;99.90;;;;;;4935863;28;20116;-63
2023/05/13 07:31:05;;;;;;;14.40;9.18;;;15.60;99.90;;;;;;4955816;28;20038;-63
2023/05/13 07:33:31;;;;;;;11.73;7.60;;;15.70;99.90;;;;;;4939707;28;20046;-63
2023/05/13 07:35:57;;;;;;;15.63;7.90;;;15.90;99.90;;;;;;4961466;28;20038;-63
2023/05/13 07:38:22;;;;;;;19.20;8.65;;;15.90;99.90;;;;;;4963240;28;20043;-63
2023/05/13 07:40:48;;;;;;;12.30;7.80;;;16.00;99.90;;;;;;4965146;28;20097;-63
2023/05/13 07:43:22;;;;;;;17.92;8.10;;;16.10;99.90;;;;;;4951504;28;20413;-63
2023/05/13 07:45:48;;;;;;;11.85;8.07;;;16.20;99.90;;;;;;4960501;28;20061;-63
2023/05/13 07:48:16;;;;;;;9.70;7.40;;;16.30;99.90;;;;;;4963125;28;20053;-62
2023/05/13 07:50:43;;;;;;;9.68;6.68;;;16.40;99.90;;;;;;4959647;28;20098;-63
2023/05/13 07:53:09;;;;;;;12.73;7.05;;;16.60;99.90;;;;;;4969732;28;20429;-63
2023/05/13 07:55:35;;;;;;;12.77;7.43;;;16.70;99.90;;;;;;4953209;28;20097;-63
2023/05/13 07:58:01;;;;;;;10.73;7.03;;;16.80;99.90;;;;;;4977065;28;20054;-63
2023/05/13 08:00:27;;;;;;;11.85;7.13;;;16.90;99.90;;;;;;4958070;28;20087;-63
2023/05/13 08:02:52;;;;;;;14.10;6.85;;;17.00;99.90;;;;;;4959263;28;20500;-63
2023/05/13 08:05:18;;;;;;;15.15;7.65;;;17.00;99.90;;;;;;4959639;28;20047;-63
2023/05/13 08:07:44;;;;;;;14.70;7.28;;;17.10;99.90;;;;;;4961588;28;20035;-63
2023/05/13 08:10:10;;;;;;;11.85;7.13;;;17.20;99.90;;;;;;4957744;28;20047;-63
2023/05/13 08:12:35;;;;;;;11.55;7.35;;;17.30;99.90;;;;;;4957310;28;20102;-63
2023/05/13 08:15:02;;;;;;;12.32;6.20;;;17.40;99.90;;;;;;4962517;28;20089;-63
2023/05/13 08:17:28;;;;;;;10.35;6.50;;;17.50;99.90;;;;;;4960858;28;20046;-63
2023/05/13 08:19:54;;;;;;;12.30;6.90;;;17.60;99.90;;;;;;4958595;28;20421;-63
2023/05/13 08:22:20;;;;;;;8.95;6.95;;;17.80;99.90;;;;;;4957573;28;20654;-63
2023/05/13 08:24:45;;;;;;;9.70;6.45;;;17.90;99.90;;;;;;4957175;28;20065;-63
2023/05/13 08:27:11;;;;;;;11.60;6.47;;;17.90;99.90;;;;;;4948853;28;20039;-63
2023/05/13 08:29:37;;;;;;;9.60;6.22;;;18.00;99.90;;;;;;4958595;28;20071;-63
2023/05/13 08:32:04;;;;;;;11.35;6.32;;;18.10;99.90;;;;;;4963333;28;20463;-63
2023/05/13 08:34:30;;;;;;;29.17;6.80;;;18.20;99.90;;;;;;4957876;28;20042;-63
2023/05/13 08:36:55;;;;;;;24.95;6.63;;;18.40;99.90;;;;;;4959235;28;20047;-63
2023/05/13 08:39:21;;;;;;;16.90;5.72;;;18.40;99.90;;;;;;4960162;28;20471;-63
2023/05/13 08:41:50;;;;;;;17.10;6.68;;;18.50;99.90;;;;;;4944686;28;20047;-63
2023/05/13 08:44:17;;;;;;;10.88;5.88;;;18.60;99.90;;;;;;4955451;28;20112;-63
2023/05/13 08:46:51;;;;;;;18.50;6.68;;;18.70;99.90;;;;;;4957580;28;20042;-63
2023/05/13 08:49:17;;;;;;;21.67;6.45;;;18.80;99.90;;;;;;4959177;28;20050;-63
2023/05/13 08:51:43;;;;;;;30.08;6.45;;;18.90;99.90;;;;;;4957781;28;20032;-63
2023/05/13 08:54:10;;;;;;;43.15;7.07;;;19.00;99.90;;;;;;4950272;28;20047;-63
2023/05/13 08:56:36;;;;;;;16.08;6.25;;;19.10;99.90;;;;;;4947670;28;20465;-63
2023/05/13 08:59:02;;;;;;;15.70;6.70;;;19.20;99.90;;;;;;4955830;28;20039;-63
2023/05/13 09:01:29;;;;;;;33.80;6.60;;;19.30;99.90;;;;;;4958621;28;20059;-63
2023/05/13 09:04:04;;;;;;;19.10;6.80;;;19.30;99.90;;;;;;4959481;28;20409;-63
2023/05/13 09:06:31;;;;;;;16.27;5.93;;;19.40;99.90;;;;;;4963582;28;20051;-63
2023/05/13 09:08:57;;;;;;;14.82;6.15;;;19.50;99.90;;;;;;4949286;28;20082;-63
2023/05/13 09:11:23;;;;;;;22.92;6.03;;;19.60;99.90;;;;;;4958001;28;20130;-63
2023/05/13 09:13:59;;;;;;;20.25;7.07;;;19.70;99.90;;;;;;4948900;28;20046;-63
2023/05/13 09:16:27;;;;;;;8.55;5.50;;;19.80;99.90;;;;;;4954368;28;20406;-63
2023/05/13 09:19:04;;;;;;;17.70;6.25;;;19.90;99.90;;;;;;4957438;28;20042;-62
2023/05/13 09:21:32;;;;;;;42.47;6.18;;;20.00;99.90;;;;;;4946954;28;20054;-63
2023/05/13 09:24:09;;;;;;;30.73;6.90;;;20.10;99.90;;;;;;4959449;28;20089;-63
2023/05/13 09:26:36;;;;;;;15.25;6.65;;;20.10;99.90;;;;;;4957429;28;20082;-63
2023/05/13 09:29:15;;;;;;;22.73;6.78;;;20.30;99.90;;;;;;4953698;28;20050;-63
2023/05/13 09:31:41;;;;;;;16.45;6.15;;;20.30;99.90;;;;;;4957891;28;20158;-63
2023/05/13 09:34:07;;;;;;;14.38;6.32;;;20.40;99.90;;;;;;4957032;28;20521;-63
2023/05/13 09:36:33;;;;;;;23.38;6.55;;;20.40;99.90;;;;;;4955298;28;20039;-63
2023/05/13 09:38:59;;;;;;;31.42;6.78;;;20.50;99.90;;;;;;4960028;28;20522;-63
2023/05/13 09:41:30;;;;;;;10.43;6.13;;;20.60;99.90;;;;;;4946325;28;20054;-63
2023/05/13 09:44:01;;;;;;;11.93;5.68;;;20.70;99.90;;;;;;4958323;28;20063;-63
2023/05/13 09:46:29;;;;;;;20.13;6.63;;;20.70;99.90;;;;;;4955921;28;20051;-63
2023/05/13 09:48:57;;;;;;;15.30;6.38;;;20.80;99.90;;;;;;4954125;28;20446;-63
2023/05/13 09:51:29;;;;;;;20.20;6.90;;;21.00;99.90;;;;;;4958885;28;20514;-63
2023/05/13 09:54:02;;;;;;;17.92;5.80;;;21.10;99.80;;;;;;4958250;28;20496;-63
2023/05/13 09:56:30;;;;;;;16.15;5.68;;;21.10;99.80;;;;;;4939004;28;20039;-63
2023/05/13 09:58:55;;;;;;;11.45;5.88;;;21.30;99.60;;;;;;4955233;28;21053;-63
2023/05/13 10:01:22;;;;;;;22.83;6.30;;;21.30;99.50;;;;;;4944997;28;20075;-63
2023/05/13 10:03:48;;;;;;;14.95;6.00;;;21.50;99.70;;;;;;4941578;28;20502;-63
2023/05/13 10:06:16;;;;;;;23.83;6.68;;;21.50;99.10;;;;;;4942264;28;20446;-63
2023/05/13 10:08:47;;;;;;;23.48;6.70;;;21.60;98.90;;;;;;4958063;28;20490;-63
2023/05/13 10:11:14;;;;;;;31.95;7.20;;;21.60;98.60;;;;;;4937493;28;20273;-62
2023/05/13 10:13:42;;;;;;;11.27;6.38;;;21.60;98.60;;;;;;4953921;28;20514;-63
2023/05/13 10:16:08;;;;;;;13.88;5.93;;;21.60;98.00;;;;;;4935861;28;20506;-63
2023/05/13 10:18:34;;;;;;;14.07;6.43;;;21.60;98.00;;;;;;4936590;28;20129;-63
2023/05/13 10:21:02;;;;;;;24.98;5.80;;;21.60;97.90;;;;;;4939830;28;20178;-63
2023/05/13 10:23:28;;;;;;;22.75;6.68;;;21.70;97.60;;;;;;4935900;28;20053;-63
2023/05/13 10:25:55;;;;;;;17.70;6.15;;;21.70;97.90;;;;;;4939298;28;20050;-63
2023/05/13 10:28:21;;;;;;;23.95;6.93;;;21.70;97.30;;;;;;4937789;28;20126;-63
2023/05/13 10:30:50;;;;;;;18.33;6.63;;;21.80;97.80;;;;;;4947878;28;20074;-63
2023/05/13 10:33:16;;;;;;;21.45;5.82;;;21.80;97.80;;;;;;4951660;28;20043;-63
2023/05/13 10:35:54;;;;;;;16.73;5.15;;;21.90;97.40;;;;;;4937699;28;20053;-63
2023/05/13 10:38:29;;;;;;;14.52;5.05;;;22.00;97.20;;;;;;4937227;28;20043;-63
2023/05/13 10:41:28;;;;;;;13.75;5.38;;;22.10;96.80;;;;;;4934181;28;20051;-63
2023/05/13 10:43:59;;;;;;;16.05;5.70;;;22.30;97.10;;;;;;4954319;28;20105;-63
2023/05/13 10:46:26;;;;;;;14.88;6.20;;;22.40;96.60;;;;;;4950489;28;20126;-63
2023/05/13 10:49:00;;;;;;;21.45;5.97;;;22.50;96.40;;;;;;4939515;28;20042;-63
2023/05/13 10:51:26;;;;;;;12.13;5.90;;;22.50;96.50;;;;;;4954091;28;20051;-63
2023/05/13 10:53:54;;;;;;;15.45;5.90;;;22.60;96.00;;;;;;4936167;28;20043;-63
2023/05/13 10:56:23;;;;;;;14.88;6.25;;;22.70;96.00;;;;;;4950011;28;20546;-62
2023/05/13 10:59:03;;;;;;;11.40;5.70;;;22.80;95.90;;;;;;4949557;28;20126;-63
2023/05/13 11:01:32;;;;;;;15.35;6.05;;;22.90;95.70;;;;;;4965532;28;20109;-63
2023/05/13 11:04:00;;;;;;;15.55;5.10;;;22.90;94.40;;;;;;4952157;28;20163;-63
2023/05/13 11:06:34;;;;;;;11.82;5.78;;;22.90;94.00;;;;;;4952574;28;20050;-63
2023/05/13 11:09:00;;;;;;;10.20;5.85;;;23.10;94.10;;;;;;4954388;28;20113;-63
2023/05/13 11:11:31;;;;;;;11.65;6.10;;;23.10;93.00;;;;;;4966482;28;20481;-63
2023/05/13 11:14:14;;;;;;;11.02;5.72;;;23.10;93.50;;;;;;4955248;28;20054;-63
2023/05/13 11:16:59;;;;;;;10.35;5.70;;;23.20;94.00;;;;;;4953367;28;20042;-61
2023/05/13 11:19:27;;;;;;;15.65;6.78;;;23.30;94.10;;;;;;4975590;28;20450;-62
2023/05/13 11:21:56;;;;;;;11.45;6.18;;;23.30;94.00;;;;;;4972605;28;20105;-61
2023/05/13 11:24:22;;;;;;;11.88;6.30;;;23.40;95.10;;;;;;4953751;28;20105;-61
2023/05/13 11:26:56;;;;;;;10.32;6.53;;;23.50;95.60;;;;;;4955071;28;20061;-62
2023/05/13 11:29:49;;;;;;;15.13;6.28;;;23.50;95.30;;;;;;4967058;28;20030;-61
2023/05/13 11:32:35;;;;;;;13.45;5.90;;;23.60;94.60;;;;;;4944231;28;20091;-62
2023/05/13 11:35:03;;;;;;;13.10;6.20;;;23.60;92.90;;;;;;4952046;28;20062;-62
2023/05/13 11:37:31;;;;;;;12.05;6.38;;;23.60;93.60;;;;;;4971468;28;20069;-62
2023/05/13 11:39:58;;;;;;;15.55;7.25;;;23.70;93.70;;;;;;4955436;28;20429;-62
2023/05/13 11:42:24;;;;;;;10.63;7.72;;;23.70;94.20;;;;;;4947719;28;20229;-61
2023/05/13 11:44:52;;;;;;;12.63;6.72;;;23.80;94.80;;;;;;4966611;28;20047;-62
2023/05/13 11:47:26;;;;;;;11.50;7.10;;;23.90;95.20;;;;;;4965143;28;21016;-61
2023/05/13 11:49:51;;;;;;;10.73;7.90;;;23.90;95.20;;;;;;4966294;28;20050;-61
2023/05/13 11:52:20;;;;;;;14.18;7.43;;;23.90;94.40;;;;;;4956671;28;20469;-62
2023/05/13 11:54:52;;;;;;;11.30;7.75;;;23.90;94.70;;;;;;4957443;28;20594;-63
2023/05/13 11:57:26;;;;;;;11.25;8.10;;;23.90;93.80;;;;;;4970491;28;20038;-62
2023/05/13 12:00:04;;;;;;;11.23;6.70;;;24.00;94.70;;;;;;4971999;28;20637;-62
2023/05/13 12:02:36;;;;;;;10.90;7.60;;;24.10;94.70;;;;;;4948943;28;20158;-63
2023/05/13 12:05:03;;;;;;;11.65;7.72;;;24.30;94.60;;;;;;4968028;28;20050;-63
2023/05/13 12:07:30;;;;;;;15.40;7.32;;;24.30;94.00;;;;;;4973711;28;20499;-62
2023/05/13 12:09:58;;;;;;;10.98;7.68;;;24.30;94.00;;;;;;4957212;28;20173;-62
2023/05/13 12:12:24;;;;;;;13.77;7.53;;;24.40;94.30;;;;;;4958757;28;20086;-62
2023/05/13 12:14:50;;;;;;;15.40;7.15;;;24.30;93.90;;;;;;4954206;28;20456;-63
2023/05/13 12:17:17;;;;;;;11.48;7.35;;;24.40;94.00;;;;;;4967645;28;20054;-62
2023/05/13 12:20:10;;;;;;;14.52;7.22;;;24.50;94.40;;;;;;4962855;28;20441;-63
2023/05/13 12:22:47;;;;;;;13.07;7.60;;;24.60;94.80;;;;;;4967698;28;20693;-62
2023/05/13 12:25:46;;;;;;;12.65;7.00;;;24.70;95.20;;;;;;4968959;28;20043;-62
2023/05/13 12:28:17;;;;;;;10.82;7.40;;;24.80;94.10;;;;;;4959110;28;20129;-63
2023/05/13 12:30:53;;;;;;;10.98;6.38;;;24.70;93.10;;;;;;4974266;28;20073;-62
2023/05/13 12:33:23;;;;;;;12.50;6.30;;;24.80;93.70;;;;;;4981903;28;20041;-63
2023/05/13 12:35:51;;;;;;;9.07;6.15;;;24.90;93.20;;;;;;4979208;28;20047;-62